sensor_id;sensor_type;location;lat;lon;timestamp;pressure;altitude;pressure_sealevel;temperature;humidity
71344;BME280;59146;43.850;25.948;2022-08-06T00:02:22;100663.66;;;25.49;61.06
71344;BME280;59146;43.850;25.948;2022-08-06T00:04:49;100670.41;;;25.45;60.97
71344;BME280;59146;43.850;25.948;2022-08-06T00:07:15;100629.44;;;25.30;60.22
71344;BME280;59146;43.850;25.948;2022-08-06T00:09:41;100653.34;;;25.46;59.45
71344;BME280;59146;43.850;25.948;2022-08-06T00:12:07;100653.34;;;25.46;57.04
71344;BME280;59146;43.850;25.948;2022-08-06T00:14:32;100684.78;;;25.73;56.19
71344;BME280;59146;43.850;25.948;2022-08-06T00:16:59;100714.75;;;25.83;55.51
71344;BME280;59146;43.850;25.948;2022-08-06T00:19:25;100697.97;;;25.75;54.72
71344;BME280;59146;43.850;25.948;2022-08-06T00:21:51;100720.00;;;25.91;54.52
71344;BME280;59146;43.850;25.948;2022-08-06T00:24:17;100728.59;;;25.87;54.30
71344;BME280;59146;43.850;25.948;2022-08-06T00:26:43;100711.63;;;25.80;53.66
71344;BME280;59146;43.850;25.948;2022-08-06T00:29:08;100671.22;;;25.60;53.47
71344;BME280;59146;43.850;25.948;2022-08-06T00:31:34;100662.66;;;25.50;52.98
71344;BME280;59146;43.850;25.948;2022-08-06T00:33:59;100693.16;;;25.70;52.70
71344;BME280;59146;43.850;25.948;2022-08-06T00:36:28;100709.84;;;25.72;52.02
71344;BME280;59146;43.850;25.948;2022-08-06T00:38:54;100729.41;;;25.87;51.53
71344;BME280;59146;43.850;25.948;2022-08-06T00:41:20;100742.44;;;25.90;51.06
71344;BME280;59146;43.850;25.948;2022-08-06T00:43:46;100669.41;;;25.46;50.94
71344;BME280;59146;43.850;25.948;2022-08-06T00:46:11;100687.28;;;25.60;50.65
71344;BME280;59146;43.850;25.948;2022-08-06T00:48:37;100741.50;;;25.83;51.28
71344;BME280;59146;43.850;25.948;2022-08-06T00:51:03;100730.47;;;25.72;51.66
71344;BME280;59146;43.850;25.948;2022-08-06T00:53:29;100709.06;;;25.57;51.98
71344;BME280;59146;43.850;25.948;2022-08-06T00:55:54;100681.47;;;25.42;52.02
71344;BME280;59146;43.850;25.948;2022-08-06T00:58:19;100684.03;;;25.36;52.52
71344;BME280;59146;43.850;25.948;2022-08-06T01:00:45;100694.84;;;25.42;52.42
71344;BME280;59146;43.850;25.948;2022-08-06T01:03:10;100715.75;;;25.39;52.53
71344;BME280;59146;43.850;25.948;2022-08-06T01:05:36;100661.03;;;25.12;52.09
71344;BME280;59146;43.850;25.948;2022-08-06T01:08:03;100706.38;;;25.43;51.83
71344;BME280;59146;43.850;25.948;2022-08-06T01:10:29;100686.34;;;25.39;51.48
71344;BME280;59146;43.850;25.948;2022-08-06T01:12:54;100642.97;;;25.14;50.98
71344;BME280;59146;43.850;25.948;2022-08-06T01:15:20;100716.44;;;25.55;50.81
71344;BME280;59146;43.850;25.948;2022-08-06T01:28:45;100722.03;;;25.46;50.77
71344;BME280;59146;43.850;25.948;2022-08-06T01:31:13;100731.34;;;25.50;50.68
71344;BME280;59146;43.850;25.948;2022-08-06T01:33:47;100673.28;;;25.06;50.51
71344;BME280;59146;43.850;25.948;2022-08-06T01:36:20;100683.44;;;25.11;50.29
71344;BME280;59146;43.850;25.948;2022-08-06T01:38:51;100678.34;;;25.01;50.63
71344;BME280;59146;43.850;25.948;2022-08-06T01:41:21;100685.25;;;24.96;51.42
71344;BME280;59146;43.850;25.948;2022-08-06T01:44:07;100717.44;;;25.02;53.57
71344;BME280;59146;43.850;25.948;2022-08-06T01:46:39;100723.53;;;25.11;56.74
71344;BME280;59146;43.850;25.948;2022-08-06T01:49:08;100727.84;;;25.12;57.12
71344;BME280;59146;43.850;25.948;2022-08-06T01:51:37;100741.22;;;25.12;57.07
71344;BME280;59146;43.850;25.948;2022-08-06T01:54:06;100713.28;;;25.00;56.65
71344;BME280;59146;43.850;25.948;2022-08-06T01:56:35;100703.94;;;24.96;57.73
71344;BME280;59146;43.850;25.948;2022-08-06T01:59:04;100702.41;;;24.79;58.70
71344;BME280;59146;43.850;25.948;2022-08-06T02:01:34;100706.47;;;24.75;59.20
71344;BME280;59146;43.850;25.948;2022-08-06T02:04:00;100734.06;;;24.90;59.31
71344;BME280;59146;43.850;25.948;2022-08-06T02:06:35;100725.81;;;24.77;59.68
71344;BME280;59146;43.850;25.948;2022-08-06T02:09:04;100721.66;;;24.74;60.28
71344;BME280;59146;43.850;25.948;2022-08-06T02:11:32;100696.41;;;24.54;60.70
71344;BME280;59146;43.850;25.948;2022-08-06T02:14:00;100727.75;;;24.60;61.25
71344;BME280;59146;43.850;25.948;2022-08-06T02:16:33;100611.03;;;23.93;61.04
71344;BME280;59146;43.850;25.948;2022-08-06T02:19:02;100645.81;;;24.07;61.53
71344;BME280;59146;43.850;25.948;2022-08-06T02:21:30;100715.81;;;24.48;61.65
71344;BME280;59146;43.850;25.948;2022-08-06T02:23:57;100703.31;;;24.40;61.50
71344;BME280;59146;43.850;25.948;2022-08-06T02:26:25;100715.31;;;24.44;61.89
71344;BME280;59146;43.850;25.948;2022-08-06T02:28:53;100688.72;;;24.28;61.83
71344;BME280;59146;43.850;25.948;2022-08-06T02:31:21;100692.75;;;24.24;61.87
71344;BME280;59146;43.850;25.948;2022-08-06T02:33:46;100702.72;;;24.30;61.48
71344;BME280;59146;43.850;25.948;2022-08-06T02:36:18;100751.78;;;24.60;60.91
71344;BME280;59146;43.850;25.948;2022-08-06T02:41:40;100734.19;;;24.66;60.18
71344;BME280;59146;43.850;25.948;2022-08-06T02:44:21;100711.19;;;24.42;60.02
71344;BME280;59146;43.850;25.948;2022-08-06T02:46:51;100705.13;;;24.48;59.80
71344;BME280;59146;43.850;25.948;2022-08-06T02:49:22;100728.13;;;24.72;59.62
71344;BME280;59146;43.850;25.948;2022-08-06T02:51:58;100744.69;;;24.98;58.90
71344;BME280;59146;43.850;25.948;2022-08-06T02:54:37;100691.00;;;24.85;58.73
71344;BME280;59146;43.850;25.948;2022-08-06T02:57:06;100720.94;;;25.03;58.26
71344;BME280;59146;43.850;25.948;2022-08-06T02:59:35;100709.28;;;24.96;57.74
71344;BME280;59146;43.850;25.948;2022-08-06T03:02:01;100700.63;;;24.94;58.12
71344;BME280;59146;43.850;25.948;2022-08-06T03:04:29;100725.56;;;25.09;57.84
71344;BME280;59146;43.850;25.948;2022-08-06T03:06:56;100704.28;;;24.93;58.87
71344;BME280;59146;43.850;25.948;2022-08-06T03:09:24;100734.34;;;25.17;58.16
71344;BME280;59146;43.850;25.948;2022-08-06T03:11:51;100712.19;;;25.09;57.45
71344;BME280;59146;43.850;25.948;2022-08-06T03:14:19;100739.56;;;25.11;58.03
71344;BME280;59146;43.850;25.948;2022-08-06T03:16:47;100703.75;;;24.97;60.07
71344;BME280;59146;43.850;25.948;2022-08-06T03:19:14;100722.97;;;25.01;61.42
71344;BME280;59146;43.850;25.948;2022-08-06T03:21:41;100691.28;;;24.75;62.13
71344;BME280;59146;43.850;25.948;2022-08-06T03:24:08;100732.53;;;25.10;62.09
71344;BME280;59146;43.850;25.948;2022-08-06T03:26:35;100690.38;;;24.83;62.17
71344;BME280;59146;43.850;25.948;2022-08-06T03:29:02;100738.88;;;24.94;62.59
71344;BME280;59146;43.850;25.948;2022-08-06T03:31:29;100710.09;;;24.82;62.26
71344;BME280;59146;43.850;25.948;2022-08-06T03:33:55;100719.75;;;24.83;62.69
71344;BME280;59146;43.850;25.948;2022-08-06T03:36:23;100720.25;;;24.86;62.74
71344;BME280;59146;43.850;25.948;2022-08-06T03:39:00;100740.34;;;24.97;63.23
71344;BME280;59146;43.850;25.948;2022-08-06T03:41:28;100728.06;;;24.88;63.69
71344;BME280;59146;43.850;25.948;2022-08-06T03:43:54;100733.59;;;24.86;63.44
71344;BME280;59146;43.850;25.948;2022-08-06T03:46:24;100762.97;;;25.09;63.05
71344;BME280;59146;43.850;25.948;2022-08-06T03:48:52;100744.41;;;25.07;62.90
71344;BME280;59146;43.850;25.948;2022-08-06T03:51:22;100693.03;;;24.83;62.83
71344;BME280;59146;43.850;25.948;2022-08-06T03:53:49;100704.28;;;24.93;62.58
71344;BME280;59146;43.850;25.948;2022-08-06T03:56:21;100720.22;;;25.09;62.49
71344;BME280;59146;43.850;25.948;2022-08-06T03:58:52;100718.47;;;25.16;61.76
71344;BME280;59146;43.850;25.948;2022-08-06T04:01:26;100713.72;;;25.26;59.39
71344;BME280;59146;43.850;25.948;2022-08-06T04:03:53;100752.59;;;25.66;55.00
71344;BME280;59146;43.850;25.948;2022-08-06T04:06:21;100716.25;;;25.57;53.44
71344;BME280;59146;43.850;25.948;2022-08-06T04:08:48;100749.28;;;25.78;52.64
71344;BME280;59146;43.850;25.948;2022-08-06T04:11:15;100762.28;;;25.67;52.61
71344;BME280;59146;43.850;25.948;2022-08-06T04:13:42;100712.41;;;25.37;53.04
71344;BME280;59146;43.850;25.948;2022-08-06T04:16:10;100741.31;;;25.70;53.68
71344;BME280;59146;43.850;25.948;2022-08-06T04:18:38;100750.56;;;25.97;52.69
71344;BME280;59146;43.850;25.948;2022-08-06T04:21:08;100756.72;;;26.12;52.53
71344;BME280;59146;43.850;25.948;2022-08-06T04:23:33;100753.50;;;26.17;51.58
71344;BME280;59146;43.850;25.948;2022-08-06T04:26:02;100781.81;;;26.40;51.38
71344;BME280;59146;43.850;25.948;2022-08-06T04:28:30;100782.91;;;26.46;50.98
71344;BME280;59146;43.850;25.948;2022-08-06T04:30:57;100794.09;;;26.85;50.46
71344;BME280;59146;43.850;25.948;2022-08-06T04:33:24;100777.31;;;26.98;49.09
71344;BME280;59146;43.850;25.948;2022-08-06T04:35:51;100752.50;;;26.89;48.78
71344;BME280;59146;43.850;25.948;2022-08-06T04:38:20;100777.47;;;27.17;48.67
71344;BME280;59146;43.850;25.948;2022-08-06T04:40:46;100721.78;;;26.92;47.72
71344;BME280;59146;43.850;25.948;2022-08-06T04:43:12;100772.91;;;27.11;47.96
71344;BME280;59146;43.850;25.948;2022-08-06T04:45:40;100687.56;;;28.37;44.06
71344;BME280;59146;43.850;25.948;2022-08-06T04:48:08;100726.09;;;28.03;44.82
71344;BME280;59146;43.850;25.948;2022-08-06T04:50:35;100722.00;;;27.80;45.50
71344;BME280;59146;43.850;25.948;2022-08-06T04:53:09;100767.56;;;29.22;42.81
71344;BME280;59146;43.850;25.948;2022-08-06T04:55:35;100748.81;;;30.49;39.18
71344;BME280;59146;43.850;25.948;2022-08-06T04:58:03;100792.97;;;29.91;40.06
71344;BME280;59146;43.850;25.948;2022-08-06T05:00:30;100764.78;;;28.82;42.64
71344;BME280;59146;43.850;25.948;2022-08-06T05:02:56;100750.91;;;29.90;40.43
71344;BME280;59146;43.850;25.948;2022-08-06T05:05:22;100788.75;;;30.08;40.08
71344;BME280;59146;43.850;25.948;2022-08-06T05:07:53;100757.13;;;29.71;40.54
71344;BME280;59146;43.850;25.948;2022-08-06T05:10:21;100784.09;;;29.32;41.42
71344;BME280;59146;43.850;25.948;2022-08-06T05:12:53;100713.16;;;28.26;42.76
71344;BME280;59146;43.850;25.948;2022-08-06T05:15:31;100786.69;;;28.73;43.01
71344;BME280;59146;43.850;25.948;2022-08-06T05:18:02;100784.69;;;29.86;40.95
71344;BME280;59146;43.850;25.948;2022-08-06T05:20:33;100741.66;;;30.30;39.20
71344;BME280;59146;43.850;25.948;2022-08-06T05:23:11;100771.91;;;30.32;39.26
71344;BME280;59146;43.850;25.948;2022-08-06T05:25:38;100737.72;;;30.26;39.41
71344;BME280;59146;43.850;25.948;2022-08-06T05:28:07;100728.22;;;30.62;37.80
71344;BME280;59146;43.850;25.948;2022-08-06T05:30:33;100753.16;;;30.82;37.68
71344;BME280;59146;43.850;25.948;2022-08-06T05:32:58;100799.47;;;30.34;38.80
71344;BME280;59146;43.850;25.948;2022-08-06T05:35:24;100791.97;;;29.46;40.86
71344;BME280;59146;43.850;25.948;2022-08-06T05:37:50;100736.47;;;29.06;41.39
71344;BME280;59146;43.850;25.948;2022-08-06T05:40:15;100767.34;;;29.43;40.90
71344;BME280;59146;43.850;25.948;2022-08-06T05:42:41;100767.91;;;29.71;40.69
71344;BME280;59146;43.850;25.948;2022-08-06T05:45:09;100779.09;;;30.89;38.64
71344;BME280;59146;43.850;25.948;2022-08-06T05:47:37;100718.72;;;31.40;37.36
71344;BME280;59146;43.850;25.948;2022-08-06T05:50:08;100786.31;;;32.60;35.65
71344;BME280;59146;43.850;25.948;2022-08-06T05:52:45;100735.91;;;32.18;35.47
71344;BME280;59146;43.850;25.948;2022-08-06T05:55:26;100721.56;;;32.65;36.56
71344;BME280;59146;43.850;25.948;2022-08-06T05:58:04;100752.22;;;32.88;38.11
71344;BME280;59146;43.850;25.948;2022-08-06T06:00:32;100738.53;;;32.95;38.13
71344;BME280;59146;43.850;25.948;2022-08-06T06:03:01;100791.53;;;34.02;35.79
71344;BME280;59146;43.850;25.948;2022-08-06T06:05:29;100740.59;;;33.92;35.63
71344;BME280;59146;43.850;25.948;2022-08-06T06:07:55;100779.59;;;34.03;35.87
71344;BME280;59146;43.850;25.948;2022-08-06T06:10:23;100769.09;;;33.83;35.99
71344;BME280;59146;43.850;25.948;2022-08-06T06:12:49;100764.06;;;33.87;35.75
71344;BME280;59146;43.850;25.948;2022-08-06T06:15:16;100765.59;;;34.34;35.02
71344;BME280;59146;43.850;25.948;2022-08-06T06:20:16;100788.88;;;34.58;34.58
71344;BME280;59146;43.850;25.948;2022-08-06T06:22:59;100735.41;;;34.02;34.58
71344;BME280;59146;43.850;25.948;2022-08-06T06:25:40;100753.34;;;33.69;35.11
71344;BME280;59146;43.850;25.948;2022-08-06T06:29:10;100746.00;;;33.92;34.97
71344;BME280;59146;43.850;25.948;2022-08-06T06:34:07;100758.06;;;33.85;34.34
71344;BME280;59146;43.850;25.948;2022-08-06T06:37:06;100787.25;;;33.36;35.73
71344;BME280;59146;43.850;25.948;2022-08-06T06:39:41;100785.16;;;33.50;35.16
71344;BME280;59146;43.850;25.948;2022-08-06T06:44:39;100772.41;;;33.16;36.00
71344;BME280;59146;43.850;25.948;2022-08-06T06:47:17;100774.97;;;32.99;36.22
71344;BME280;59146;43.850;25.948;2022-08-06T06:50:12;100789.34;;;32.81;36.83
71344;BME280;59146;43.850;25.948;2022-08-06T06:52:40;100770.75;;;32.85;36.66
71344;BME280;59146;43.850;25.948;2022-08-06T06:55:13;100732.28;;;32.71;36.87
71344;BME280;59146;43.850;25.948;2022-08-06T06:57:49;100772.59;;;32.61;37.12
71344;BME280;59146;43.850;25.948;2022-08-06T07:00:15;100746.09;;;32.52;36.99
71344;BME280;59146;43.850;25.948;2022-08-06T07:02:45;100762.84;;;32.42;37.71
71344;BME280;59146;43.850;25.948;2022-08-06T07:05:12;100725.94;;;32.18;38.04
71344;BME280;59146;43.850;25.948;2022-08-06T07:07:39;100749.66;;;32.16;38.31
71344;BME280;59146;43.850;25.948;2022-08-06T07:10:08;100779.84;;;32.43;38.80
71344;BME280;59146;43.850;25.948;2022-08-06T07:12:35;100785.44;;;32.48;38.35
71344;BME280;59146;43.850;25.948;2022-08-06T07:15:02;100765.16;;;32.39;38.59
71344;BME280;59146;43.850;25.948;2022-08-06T07:17:31;100741.59;;;32.87;37.29
71344;BME280;59146;43.850;25.948;2022-08-06T07:19:59;100798.44;;;33.75;37.06
71344;BME280;59146;43.850;25.948;2022-08-06T07:22:26;100731.34;;;33.65;36.19
71344;BME280;59146;43.850;25.948;2022-08-06T07:24:55;100785.09;;;34.59;34.82
71344;BME280;59146;43.850;25.948;2022-08-06T07:27:21;100737.53;;;34.00;33.82
71344;BME280;59146;43.850;25.948;2022-08-06T07:29:48;100731.06;;;33.20;35.13
71344;BME280;59146;43.850;25.948;2022-08-06T07:32:15;100747.47;;;33.37;36.56
71344;BME280;59146;43.850;25.948;2022-08-06T07:34:41;100777.69;;;33.22;37.44
71344;BME280;59146;43.850;25.948;2022-08-06T07:37:07;100773.97;;;32.64;37.99
71344;BME280;59146;43.850;25.948;2022-08-06T07:39:38;100729.88;;;32.34;36.27
71344;BME280;59146;43.850;25.948;2022-08-06T07:42:11;100769.56;;;33.45;35.74
71344;BME280;59146;43.850;25.948;2022-08-06T07:44:42;100753.47;;;33.74;33.75
71344;BME280;59146;43.850;25.948;2022-08-06T07:47:08;100780.97;;;34.17;34.63
71344;BME280;59146;43.850;25.948;2022-08-06T07:49:40;100789.13;;;34.45;34.41
71344;BME280;59146;43.850;25.948;2022-08-06T07:52:07;100706.69;;;34.01;34.94
71344;BME280;59146;43.850;25.948;2022-08-06T07:54:35;100780.13;;;34.28;34.81
71344;BME280;59146;43.850;25.948;2022-08-06T07:57:02;100773.94;;;33.93;34.97
71344;BME280;59146;43.850;25.948;2022-08-06T07:59:28;100752.13;;;33.88;34.75
71344;BME280;59146;43.850;25.948;2022-08-06T08:01:55;100751.38;;;34.27;34.75
71344;BME280;59146;43.850;25.948;2022-08-06T08:04:21;100745.22;;;34.31;33.37
71344;BME280;59146;43.850;25.948;2022-08-06T08:07:06;100673.50;;;34.11;33.27
71344;BME280;59146;43.850;25.948;2022-08-06T08:09:33;100773.44;;;34.75;33.48
71344;BME280;59146;43.850;25.948;2022-08-06T08:12:01;100723.47;;;34.15;33.91
71344;BME280;59146;43.850;25.948;2022-08-06T08:14:27;100772.78;;;33.89;34.87
71344;BME280;59146;43.850;25.948;2022-08-06T08:16:54;100757.72;;;33.70;34.35
71344;BME280;59146;43.850;25.948;2022-08-06T08:21:45;100721.13;;;32.91;36.41
71344;BME280;59146;43.850;25.948;2022-08-06T08:24:11;100747.91;;;32.69;36.28
71344;BME280;59146;43.850;25.948;2022-08-06T08:26:36;100764.00;;;32.64;36.07
71344;BME280;59146;43.850;25.948;2022-08-06T08:29:02;100702.06;;;32.45;35.94
71344;BME280;59146;43.850;25.948;2022-08-06T08:31:27;100743.47;;;32.75;35.68
71344;BME280;59146;43.850;25.948;2022-08-06T08:33:53;100685.97;;;32.38;35.10
71344;BME280;59146;43.850;25.948;2022-08-06T08:36:18;100708.97;;;32.41;35.92
71344;BME280;59146;43.850;25.948;2022-08-06T08:38:46;100763.34;;;32.80;34.77
71344;BME280;59146;43.850;25.948;2022-08-06T08:41:16;100742.38;;;32.17;35.82
71344;BME280;59146;43.850;25.948;2022-08-06T08:43:54;100712.94;;;31.90;36.36
71344;BME280;59146;43.850;25.948;2022-08-06T08:46:21;100768.94;;;32.20;36.93
71344;BME280;59146;43.850;25.948;2022-08-06T08:48:47;100638.72;;;31.45;36.35
71344;BME280;59146;43.850;25.948;2022-08-06T08:51:14;100756.59;;;31.94;36.84
71344;BME280;59146;43.850;25.948;2022-08-06T08:53:44;100778.19;;;32.12;36.42
71344;BME280;59146;43.850;25.948;2022-08-06T08:56:13;100767.16;;;32.43;35.53
71344;BME280;59146;43.850;25.948;2022-08-06T08:58:42;100753.06;;;32.41;35.03
71344;BME280;59146;43.850;25.948;2022-08-06T09:01:08;100722.81;;;32.33;34.80
71344;BME280;59146;43.850;25.948;2022-08-06T09:03:38;100767.47;;;32.53;34.68
71344;BME280;59146;43.850;25.948;2022-08-06T09:06:05;100708.19;;;32.40;34.94
71344;BME280;59146;43.850;25.948;2022-08-06T09:08:32;100744.72;;;32.61;34.36
71344;BME280;59146;43.850;25.948;2022-08-06T09:10:59;100737.63;;;32.48;34.99
71344;BME280;59146;43.850;25.948;2022-08-06T09:13:26;100712.56;;;32.23;34.38
71344;BME280;59146;43.850;25.948;2022-08-06T09:15:52;100731.09;;;32.67;34.16
71344;BME280;59146;43.850;25.948;2022-08-06T09:18:19;100716.06;;;32.71;33.40
71344;BME280;59146;43.850;25.948;2022-08-06T09:20:44;100639.78;;;32.40;33.02
71344;BME280;59146;43.850;25.948;2022-08-06T09:23:10;100719.16;;;32.86;33.45
71344;BME280;59146;43.850;25.948;2022-08-06T09:25:43;100762.28;;;33.23;32.89
71344;BME280;59146;43.850;25.948;2022-08-06T09:31:16;100741.09;;;33.20;33.35
71344;BME280;59146;43.850;25.948;2022-08-06T09:34:02;100683.38;;;32.73;32.78
71344;BME280;59146;43.850;25.948;2022-08-06T09:36:28;100705.66;;;32.98;32.92
71344;BME280;59146;43.850;25.948;2022-08-06T09:39:05;100755.16;;;33.51;32.99
71344;BME280;59146;43.850;25.948;2022-08-06T09:41:30;100715.09;;;33.30;32.56
71344;BME280;59146;43.850;25.948;2022-08-06T09:43:56;100734.63;;;33.21;33.16
71344;BME280;59146;43.850;25.948;2022-08-06T09:49:05;100700.19;;;32.75;33.18
71344;BME280;59146;43.850;25.948;2022-08-06T09:51:31;100756.00;;;32.40;34.51
71344;BME280;59146;43.850;25.948;2022-08-06T09:54:00;100701.34;;;32.67;34.03
71344;BME280;59146;43.850;25.948;2022-08-06T09:56:26;100709.44;;;33.20;32.76
71344;BME280;59146;43.850;25.948;2022-08-06T09:59:05;100743.00;;;33.66;32.40
71344;BME280;59146;43.850;25.948;2022-08-06T10:01:43;100714.16;;;33.36;32.54
71344;BME280;59146;43.850;25.948;2022-08-06T10:04:26;100725.66;;;33.20;32.68
71344;BME280;59146;43.850;25.948;2022-08-06T10:06:57;100729.44;;;33.42;32.75
71344;BME280;59146;43.850;25.948;2022-08-06T10:09:23;100713.78;;;33.44;32.68
71344;BME280;59146;43.850;25.948;2022-08-06T10:11:49;100701.88;;;33.45;32.47
71344;BME280;59146;43.850;25.948;2022-08-06T10:17:11;100578.59;;;33.15;32.00
71344;BME280;59146;43.850;25.948;2022-08-06T10:19:39;100695.00;;;34.01;31.63
71344;BME280;59146;43.850;25.948;2022-08-06T10:22:05;100728.56;;;34.11;32.17
71344;BME280;59146;43.850;25.948;2022-08-06T10:24:33;100647.97;;;33.67;31.71
71344;BME280;59146;43.850;25.948;2022-08-06T10:27:01;100709.84;;;34.10;31.86
71344;BME280;59146;43.850;25.948;2022-08-06T10:29:27;100632.84;;;33.83;31.65
71344;BME280;59146;43.850;25.948;2022-08-06T10:31:55;100641.97;;;34.05;31.35
71344;BME280;59146;43.850;25.948;2022-08-06T10:34:24;100708.38;;;34.47;30.78
71344;BME280;59146;43.850;25.948;2022-08-06T10:37:01;100674.84;;;34.25;31.18
71344;BME280;59146;43.850;25.948;2022-08-06T10:39:30;100651.25;;;34.09;30.87
71344;BME280;59146;43.850;25.948;2022-08-06T10:41:57;100712.78;;;34.36;30.89
71344;BME280;59146;43.850;25.948;2022-08-06T10:44:24;100705.84;;;34.01;31.50
71344;BME280;59146;43.850;25.948;2022-08-06T10:46:53;100695.13;;;34.06;31.28
71344;BME280;59146;43.850;25.948;2022-08-06T10:49:22;100657.69;;;33.80;31.15
71344;BME280;59146;43.850;25.948;2022-08-06T10:51:48;100604.19;;;33.35;31.11
71344;BME280;59146;43.850;25.948;2022-08-06T10:54:16;100633.06;;;33.53;30.81
71344;BME280;59146;43.850;25.948;2022-08-06T10:56:41;100672.06;;;34.20;30.30
71344;BME280;59146;43.850;25.948;2022-08-06T10:59:08;100672.06;;;34.20;30.30
71344;BME280;59146;43.850;25.948;2022-08-06T11:01:49;100696.22;;;34.21;30.54
71344;BME280;59146;43.850;25.948;2022-08-06T11:04:30;100675.06;;;34.35;30.47
71344;BME280;59146;43.850;25.948;2022-08-06T11:07:32;100702.16;;;34.63;29.85
71344;BME280;59146;43.850;25.948;2022-08-06T11:15:40;100692.97;;;34.97;28.78
71344;BME280;59146;43.850;25.948;2022-08-06T11:18:08;100628.91;;;34.80;28.74
71344;BME280;59146;43.850;25.948;2022-08-06T11:23:22;100680.66;;;35.45;28.47
71344;BME280;59146;43.850;25.948;2022-08-06T11:25:50;100701.03;;;35.09;28.39
71344;BME280;59146;43.850;25.948;2022-08-06T11:28:17;100635.25;;;35.19;28.60
71344;BME280;59146;43.850;25.948;2022-08-06T11:30:48;100620.69;;;34.91;28.33
71344;BME280;59146;43.850;25.948;2022-08-06T11:33:17;100610.34;;;34.55;30.40
71344;BME280;59146;43.850;25.948;2022-08-06T11:35:45;100617.44;;;34.28;29.95
71344;BME280;59146;43.850;25.948;2022-08-06T11:38:56;100599.34;;;34.17;29.74
71344;BME280;59146;43.850;25.948;2022-08-06T11:41:09;100642.25;;;34.20;32.95
71344;BME280;59146;43.850;25.948;2022-08-06T11:51:41;100692.09;;;33.79;30.50
71344;BME280;59146;43.850;25.948;2022-08-06T12:02:02;100615.38;;;34.02;30.37
71344;BME280;59146;43.850;25.948;2022-08-06T12:07:24;100621.84;;;34.01;29.62
71344;BME280;59146;43.850;25.948;2022-08-06T12:12:30;100653.03;;;34.76;29.04
71344;BME280;59146;43.850;25.948;2022-08-06T12:15:04;100634.81;;;35.27;29.28
71344;BME280;59146;43.850;25.948;2022-08-06T12:20:33;100534.28;;;33.55;29.91
71344;BME280;59146;43.850;25.948;2022-08-06T12:23:01;100618.19;;;33.95;30.42
71344;BME280;59146;43.850;25.948;2022-08-06T12:25:37;100628.00;;;33.85;30.15
71344;BME280;59146;43.850;25.948;2022-08-06T12:28:04;100506.03;;;33.00;31.02
71344;BME280;59146;43.850;25.948;2022-08-06T12:30:45;100640.53;;;34.14;29.78
71344;BME280;59146;43.850;25.948;2022-08-06T12:33:12;100627.56;;;34.32;29.46
71344;BME280;59146;43.850;25.948;2022-08-06T12:35:49;100623.84;;;34.67;28.77
71344;BME280;59146;43.850;25.948;2022-08-06T12:38:14;100593.47;;;34.20;29.25
71344;BME280;59146;43.850;25.948;2022-08-06T12:40:40;100569.31;;;34.02;29.35
71344;BME280;59146;43.850;25.948;2022-08-06T12:45:32;100631.97;;;35.17;27.86
71344;BME280;59146;43.850;25.948;2022-08-06T12:48:06;100554.63;;;34.64;28.47
71344;BME280;59146;43.850;25.948;2022-08-06T12:50:37;100604.09;;;34.71;28.30
71344;BME280;59146;43.850;25.948;2022-08-06T12:53:04;100624.16;;;34.70;28.76
71344;BME280;59146;43.850;25.948;2022-08-06T12:55:35;100540.75;;;33.99;29.60
71344;BME280;59146;43.850;25.948;2022-08-06T12:58:01;100599.91;;;34.02;29.79
71344;BME280;59146;43.850;25.948;2022-08-06T13:00:28;100596.16;;;34.03;29.84
71344;BME280;59146;43.850;25.948;2022-08-06T13:02:55;100581.84;;;33.80;29.77
71344;BME280;59146;43.850;25.948;2022-08-06T13:05:21;100617.75;;;33.87;29.98
71344;BME280;59146;43.850;25.948;2022-08-06T13:07:53;100610.66;;;33.86;30.29
71344;BME280;59146;43.850;25.948;2022-08-06T13:10:19;100539.22;;;33.35;30.04
71344;BME280;59146;43.850;25.948;2022-08-06T13:12:55;100551.94;;;33.35;30.69
71344;BME280;59146;43.850;25.948;2022-08-06T13:15:22;100620.59;;;33.80;29.89
71344;BME280;59146;43.850;25.948;2022-08-06T13:23:01;100598.78;;;33.47;30.39
71344;BME280;59146;43.850;25.948;2022-08-06T13:25:27;100563.47;;;33.53;30.27
71344;BME280;59146;43.850;25.948;2022-08-06T13:28:07;100567.78;;;33.66;29.95
71344;BME280;59146;43.850;25.948;2022-08-06T13:30:33;100599.34;;;34.17;30.10
71344;BME280;59146;43.850;25.948;2022-08-06T13:33:14;100550.56;;;34.17;29.28
71344;BME280;59146;43.850;25.948;2022-08-06T13:35:40;100560.63;;;34.33;28.82
71344;BME280;59146;43.850;25.948;2022-08-06T13:38:06;100603.78;;;34.51;28.84
71344;BME280;59146;43.850;25.948;2022-08-06T13:40:47;100554.38;;;34.16;28.56
71344;BME280;59146;43.850;25.948;2022-08-06T13:43:12;100608.75;;;34.26;29.22
71344;BME280;59146;43.850;25.948;2022-08-06T13:45:38;100596.06;;;33.87;29.41
71344;BME280;59146;43.850;25.948;2022-08-06T13:48:09;100576.25;;;33.70;30.15
71344;BME280;59146;43.850;25.948;2022-08-06T13:50:35;100601.28;;;34.33;29.75
71344;BME280;59146;43.850;25.948;2022-08-06T13:53:02;100552.63;;;34.10;29.33
71344;BME280;59146;43.850;25.948;2022-08-06T13:55:29;100607.19;;;34.30;29.84
71344;BME280;59146;43.850;25.948;2022-08-06T13:57:55;100597.31;;;34.24;29.85
71344;BME280;59146;43.850;25.948;2022-08-06T14:00:21;100570.72;;;33.93;29.72
71344;BME280;59146;43.850;25.948;2022-08-06T14:02:47;100587.75;;;34.05;29.54
71344;BME280;59146;43.850;25.948;2022-08-06T14:05:13;100577.69;;;33.60;30.36